Time,TemperatureF,DewpointF,PressureIn,WindDirection,WindDirectionDegrees,WindSpeedMPH,WindSpeedGustMPH,Humidity,HourlyPrecipIn,Conditions,Clouds,dailyrainin,SolarRadiationWatts/m^2,SoftwareType,DateUTC
2013-08-12 00:00:00,59.0,56.0,-100.00,SSE,157,0.0,-999.0,91,-99.99,,,-99.99,2.320000,,2013-08-12 04:00:00,
2013-08-12 00:33:00,59.0,56.0,-100.00,SSE,157,0.0,-999.0,91,-99.99,,,-99.99,2.320000,,2013-08-12 04:33:00,
2013-08-12 00:43:00,59.0,56.0,-100.00,SSE,157,0.0,-999.0,91,-99.99,,,-99.99,2.320000,,2013-08-12 04:43:00,
2013-08-12 00:52:00,59.0,56.0,-100.00,SSE,157,0.0,-999.0,91,-99.99,,,-99.99,2.320000,,2013-08-12 04:52:00,
2013-08-12 01:00:00,59.0,57.0,-100.00,SSW,202,0.0,-999.0,92,-99.99,,,-99.99,2.320000,,2013-08-12 05:00:00,
2013-08-12 01:32:00,59.0,57.0,-100.00,SSW,202,0.0,-999.0,92,-99.99,,,-99.99,2.320000,,2013-08-12 05:32:00,
2013-08-12 01:43:00,59.0,57.0,-100.00,SSW,202,0.0,-999.0,92,-99.99,,,-99.99,2.320000,,2013-08-12 05:43:00,
2013-08-12 01:52:00,59.0,57.0,-100.00,SSW,202,0.0,-999.0,92,-99.99,,,-99.99,2.320000,,2013-08-12 05:52:00,
2013-08-12 02:00:00,60.0,58.0,-100.00,SSE,157,0.0,-999.0,92,-99.99,,,-99.99,2.320000,,2013-08-12 06:00:00,
2013-08-12 02:42:00,60.0,58.0,-100.00,SSE,157,0.0,-999.0,92,-99.99,,,-99.99,2.320000,,2013-08-12 06:42:00,
2013-08-12 02:52:00,60.0,58.0,-100.00,SSE,157,0.0,-999.0,92,-99.99,,,-99.99,2.320000,,2013-08-12 06:52:00,
2013-08-12 03:00:00,59.0,57.0,-100.00,SSE,157,0.0,-999.0,93,-99.99,,,-99.99,2.320000,,2013-08-12 07:00:00,
2013-08-12 03:33:00,59.0,57.0,-100.00,SSE,157,0.0,-999.0,93,-99.99,,,-99.99,2.320000,,2013-08-12 07:33:00,
2013-08-12 03:43:00,59.0,57.0,-100.00,SSE,157,0.0,-999.0,93,-99.99,,,-99.99,2.320000,,2013-08-12 07:43:00,
2013-08-12 03:53:00,59.0,57.0,-100.00,SSE,157,0.0,-999.0,93,-99.99,,,-99.99,2.320000,,2013-08-12 07:53:00,
2013-08-12 04:00:00,59.0,57.0,-100.00,SSE,157,0.0,-999.0,94,-99.99,,,-99.99,2.320000,,2013-08-12 08:00:00,
2013-08-12 04:33:00,59.0,57.0,-100.00,SSE,157,0.0,-999.0,94,-99.99,,,-99.99,2.320000,,2013-08-12 08:33:00,
2013-08-12 04:43:00,59.0,57.0,-100.00,SSE,157,0.0,-999.0,94,-99.99,,,-99.99,2.320000,,2013-08-12 08:43:00,
2013-08-12 04:53:00,59.0,57.0,-100.00,SSE,157,0.0,-999.0,94,-99.99,,,-99.99,2.320000,,2013-08-12 08:53:00,
2013-08-12 05:00:00,58.0,57.0,-100.00,SSW,202,0.0,-999.0,94,-99.99,,,-99.99,2.320000,,2013-08-12 09:00:00,
2013-08-12 05:32:00,58.0,57.0,-100.00,SSW,202,0.0,-999.0,94,-99.99,,,-99.99,2.320000,,2013-08-12 09:32:00,
2013-08-12 05:43:00,58.0,57.0,-100.00,SSW,202,0.0,-999.0,94,-99.99,,,-99.99,2.320000,,2013-08-12 09:43:00,
2013-08-12 05:53:00,58.0,57.0,-100.00,SSW,202,0.0,-999.0,94,-99.99,,,-99.99,2.320000,,2013-08-12 09:53:00,
2013-08-12 06:00:00,59.0,58.0,-100.00,SW,225,0.0,-999.0,94,-99.99,,,-99.99,2.320000,,2013-08-12 10:00:00,
2013-08-12 06:32:00,59.0,58.0,-100.00,SW,225,0.0,-999.0,94,-99.99,,,-99.99,2.320000,,2013-08-12 10:32:00,
2013-08-12 06:43:00,59.0,58.0,-100.00,SW,225,0.0,-999.0,94,-99.99,,,-99.99,2.320000,,2013-08-12 10:43:00,
2013-08-12 06:52:00,59.0,58.0,-100.00,SW,225,0.0,-999.0,94,-99.99,,,-99.99,2.320000,,2013-08-12 10:52:00,
2013-08-12 07:00:00,59.0,58.0,-100.00,South,180,0.0,-999.0,95,-99.99,,,-99.99,4.640000,,2013-08-12 11:00:00,
2013-08-12 07:32:00,59.0,58.0,-100.00,South,180,0.0,-999.0,95,-99.99,,,-99.99,4.640000,,2013-08-12 11:32:00,
2013-08-12 07:43:00,59.0,58.0,-100.00,South,180,0.0,-999.0,95,-99.99,,,-99.99,4.640000,,2013-08-12 11:43:00,
2013-08-12 07:53:00,59.0,58.0,-100.00,South,180,0.0,-999.0,95,-99.99,,,-99.99,4.640000,,2013-08-12 11:53:00,
2013-08-12 08:00:00,60.0,58.0,-100.00,SSW,202,0.0,-999.0,95,-99.99,,,-99.99,37.119999,,2013-08-12 12:00:00,
2013-08-12 08:32:00,60.0,58.0,-100.00,SSW,202,0.0,-999.0,95,-99.99,,,-99.99,37.119999,,2013-08-12 12:32:00,
2013-08-12 08:43:00,60.0,58.0,-100.00,SSW,202,0.0,-999.0,95,-99.99,,,-99.99,37.119999,,2013-08-12 12:43:00,
2013-08-12 08:52:00,60.0,58.0,-100.00,SSW,202,0.0,-999.0,95,-99.99,,,-99.99,37.119999,,2013-08-12 12:52:00,
2013-08-12 09:00:00,61.0,60.0,-100.00,SSW,202,1.0,-999.0,95,-99.99,,,-99.99,89.320000,,2013-08-12 13:00:00,
2013-08-12 09:33:00,61.0,60.0,-100.00,SSW,202,1.0,-999.0,95,-99.99,,,-99.99,89.320000,,2013-08-12 13:33:00,
2013-08-12 09:43:00,61.0,60.0,-100.00,SSW,202,1.0,-999.0,95,-99.99,,,-99.99,89.320000,,2013-08-12 13:43:00,
2013-08-12 09:53:00,61.0,60.0,-100.00,SSW,202,1.0,-999.0,95,-99.99,,,-99.99,89.320000,,2013-08-12 13:53:00,
2013-08-12 10:00:00,63.0,61.0,-100.00,SSW,202,1.0,-999.0,93,-99.99,,,-99.99,180.960007,,2013-08-12 14:00:00,
2013-08-12 10:32:00,63.0,61.0,-100.00,SSW,202,1.0,-999.0,93,-99.99,,,-99.99,180.960007,,2013-08-12 14:32:00,
2013-08-12 10:42:00,63.0,61.0,-100.00,SSW,202,1.0,-999.0,93,-99.99,,,-99.99,180.960007,,2013-08-12 14:42:00,
2013-08-12 10:53:00,63.0,61.0,-100.00,SSW,202,1.0,-999.0,93,-99.99,,,-99.99,180.960007,,2013-08-12 14:53:00,
2013-08-12 11:00:00,66.0,61.0,-100.00,SSW,202,2.0,-999.0,84,-99.99,,,-99.99,422.239990,,2013-08-12 15:00:00,
2013-08-12 11:43:00,66.0,61.0,-100.00,SSW,202,2.0,-999.0,84,-99.99,,,-99.99,422.239990,,2013-08-12 15:43:00,
2013-08-12 11:52:00,66.0,61.0,-100.00,SSW,202,2.0,-999.0,84,-99.99,,,-99.99,422.239990,,2013-08-12 15:52:00,
2013-08-12 12:00:00,69.0,61.0,-100.00,South,180,3.0,-999.0,75,-99.99,,,-99.99,672.799988,,2013-08-12 16:00:00,
2013-08-12 12:43:00,69.0,61.0,-100.00,South,180,3.0,-999.0,75,-99.99,,,-99.99,672.799988,,2013-08-12 16:43:00,
2013-08-12 12:53:00,69.0,61.0,-100.00,South,180,3.0,-999.0,75,-99.99,,,-99.99,672.799988,,2013-08-12 16:53:00,
2013-08-12 13:00:00,72.0,59.0,-100.00,SW,225,1.0,-999.0,64,-99.99,,,-99.99,751.679993,,2013-08-12 17:00:00,
2013-08-12 13:43:00,72.0,59.0,-100.00,SW,225,1.0,-999.0,64,-99.99,,,-99.99,751.679993,,2013-08-12 17:43:00,
2013-08-12 13:52:00,72.0,59.0,-100.00,SW,225,1.0,-999.0,64,-99.99,,,-99.99,751.679993,,2013-08-12 17:52:00,
2013-08-12 14:00:00,74.0,59.0,-100.00,SW,225,4.0,-999.0,59,-99.99,,,-99.99,589.280029,,2013-08-12 18:00:00,
2013-08-12 14:43:00,74.0,59.0,-100.00,SW,225,4.0,-999.0,59,-99.99,,,-99.99,589.280029,,2013-08-12 18:43:00,
2013-08-12 14:52:00,74.0,59.0,-100.00,SW,225,4.0,-999.0,59,-99.99,,,-99.99,589.280029,,2013-08-12 18:52:00,
2013-08-12 15:00:00,75.0,60.0,-100.00,WSW,247,5.0,-999.0,60,-99.99,,,-99.99,678.599976,,2013-08-12 19:00:00,
2013-08-12 15:43:00,75.0,60.0,-100.00,WSW,247,5.0,-999.0,60,-99.99,,,-99.99,678.599976,,2013-08-12 19:43:00,
2013-08-12 15:52:00,75.0,60.0,-100.00,WSW,247,5.0,-999.0,60,-99.99,,,-99.99,678.599976,,2013-08-12 19:52:00,
2013-08-12 16:00:00,73.0,60.0,-100.00,West,270,5.0,-999.0,65,-99.99,,,-99.99,381.640015,,2013-08-12 20:00:00,
2013-08-12 16:42:00,73.0,60.0,-100.00,West,270,5.0,-999.0,65,-99.99,,,-99.99,381.640015,,2013-08-12 20:42:00,
2013-08-12 16:52:00,73.0,60.0,-100.00,West,270,5.0,-999.0,65,-99.99,,,-99.99,381.640015,,2013-08-12 20:52:00,
2013-08-12 17:00:00,70.0,60.0,-100.00,West,270,4.0,-999.0,70,-99.99,,,-99.99,227.360001,,2013-08-12 21:00:00,
2013-08-12 17:43:00,70.0,60.0,-100.00,West,270,4.0,-999.0,70,-99.99,,,-99.99,227.360001,,2013-08-12 21:43:00,
2013-08-12 17:52:00,70.0,60.0,-100.00,West,270,4.0,-999.0,70,-99.99,,,-99.99,227.360001,,2013-08-12 21:52:00,
2013-08-12 18:00:00,69.0,60.0,-100.00,West,270,2.0,-999.0,73,-99.99,,,-99.99,155.440002,,2013-08-12 22:00:00,
2013-08-12 18:43:00,69.0,60.0,-100.00,West,270,2.0,-999.0,73,-99.99,,,-99.99,155.440002,,2013-08-12 22:43:00,
2013-08-12 18:53:00,69.0,60.0,-100.00,West,270,2.0,-999.0,73,-99.99,,,-99.99,155.440002,,2013-08-12 22:53:00,
2013-08-12 19:00:00,68.0,59.0,-100.00,SW,225,3.0,-999.0,72,-99.99,,,-99.99,116.000000,,2013-08-12 23:00:00,
2013-08-12 19:44:00,68.0,59.0,-100.00,SW,225,3.0,-999.0,72,-99.99,,,-99.99,116.000000,,2013-08-12 23:44:00,
2013-08-12 19:54:00,68.0,59.0,-100.00,SW,225,3.0,-999.0,72,-99.99,,,-99.99,116.000000,,2013-08-12 23:54:00,
2013-08-12 20:00:00,65.0,57.0,-100.00,SSE,157,1.0,-999.0,75,-99.99,,,-99.99,33.639999,,2013-08-13 00:00:00,
2013-08-12 20:45:00,65.0,57.0,-100.00,SSE,157,1.0,-999.0,75,-99.99,,,-99.99,33.639999,,2013-08-13 00:45:00,
2013-08-12 20:54:00,65.0,57.0,-100.00,SSE,157,1.0,-999.0,75,-99.99,,,-99.99,33.639999,,2013-08-13 00:54:00,
2013-08-12 21:00:00,63.0,57.0,-100.00,SW,225,2.0,-999.0,79,-99.99,,,-99.99,18.559999,,2013-08-13 01:00:00,
2013-08-12 21:42:00,63.0,57.0,-100.00,SW,225,2.0,-999.0,79,-99.99,,,-99.99,18.559999,,2013-08-13 01:42:00,
2013-08-12 21:55:00,63.0,57.0,-100.00,SW,225,2.0,-999.0,79,-99.99,,,-99.99,18.559999,,2013-08-13 01:55:00,
2013-08-12 22:00:00,60.0,53.0,-100.00,SW,225,1.0,-999.0,75,-99.99,,,-99.99,2.320000,,2013-08-13 02:00:00,
2013-08-12 22:43:00,60.0,53.0,-100.00,SW,225,1.0,-999.0,75,-99.99,,,-99.99,2.320000,,2013-08-13 02:43:00,
2013-08-12 22:52:00,60.0,53.0,-100.00,SW,225,1.0,-999.0,75,-99.99,,,-99.99,2.320000,,2013-08-13 02:52:00,
2013-08-12 23:00:00,58.0,50.0,-100.00,SSW,202,2.0,-999.0,76,-99.99,,,-99.99,2.320000,,2013-08-13 03:00:00,
2013-08-12 23:43:00,58.0,50.0,-100.00,SSW,202,2.0,-999.0,76,-99.99,,,-99.99,2.320000,,2013-08-13 03:43:00,
2013-08-12 23:54:00,58.0,50.0,-100.00,SSW,202,2.0,-999.0,76,-99.99,,,-99.99,2.320000,,2013-08-13 03:54:00,